createdAt,value
2018-03-28T00:00:39.205Z,98115
2018-03-28T00:03:06.198Z,98108
2018-03-28T00:05:33.298Z,98103
2018-03-28T00:08:00.298Z,98094
2018-03-28T00:10:27.338Z,98098
2018-03-28T00:12:54.361Z,98094
2018-03-28T00:15:21.383Z,98099
2018-03-28T00:17:48.378Z,98088
2018-03-28T00:20:15.398Z,98088
2018-03-28T00:22:42.418Z,98083
2018-03-28T00:25:09.399Z,98076
2018-03-28T00:27:36.418Z,98081
2018-03-28T00:30:03.499Z,98072
2018-03-28T00:32:30.481Z,98072
2018-03-28T00:34:57.520Z,98067
2018-03-28T00:37:24.540Z,98061
2018-03-28T00:39:51.538Z,98064
2018-03-28T00:42:18.589Z,98057
2018-03-28T00:44:45.518Z,98060
2018-03-28T00:47:12.479Z,98065
2018-03-28T00:49:39.459Z,98058
2018-03-28T00:52:06.379Z,98067
2018-03-28T00:54:33.404Z,98063
2018-03-28T00:57:00.439Z,98075
2018-03-28T00:59:27.478Z,98069
2018-03-28T01:01:54.479Z,98070
2018-03-28T01:04:21.513Z,98062
2018-03-28T01:06:49.239Z,98054
2018-03-28T01:09:16.958Z,98051
2018-03-28T01:11:44.044Z,98049
2018-03-28T01:14:11.764Z,98047
2018-03-28T01:16:38.759Z,98040
2018-03-28T01:19:05.839Z,98041
2018-03-28T01:21:32.859Z,98035
2018-03-28T01:23:59.860Z,98028
2018-03-28T01:26:26.879Z,98039
2018-03-28T01:28:53.879Z,98031
2018-03-28T01:31:20.899Z,98034
2018-03-28T01:33:47.959Z,98030
2018-03-28T01:36:22.758Z,98030
2018-03-28T01:38:50.590Z,98035
2018-03-28T01:41:28.998Z,98028
2018-03-28T01:43:56.039Z,98014
2018-03-28T01:46:23.019Z,98017
2018-03-28T01:48:50.020Z,98031
2018-03-28T01:51:17.038Z,98025
2018-03-28T01:53:43.998Z,98023
2018-03-28T01:56:10.958Z,98018
2018-03-28T01:58:37.978Z,98015
2018-03-28T02:01:04.998Z,98015
2018-03-28T02:03:31.959Z,98009
2018-03-28T02:05:58.938Z,98014
2018-03-28T02:08:25.899Z,98017
2018-03-28T02:10:52.899Z,98018
2018-03-28T02:13:19.917Z,98009
2018-03-28T02:15:46.918Z,98010
2018-03-28T02:18:13.940Z,98004
2018-03-28T02:20:41.059Z,98006
2018-03-28T02:23:08.038Z,98008
2018-03-28T02:25:35.017Z,98011
2018-03-28T02:28:02.039Z,98013
2018-03-28T02:30:29.039Z,98014
2018-03-28T02:32:56.058Z,98005
2018-03-28T02:35:23.118Z,98000
2018-03-28T02:37:50.199Z,98004
2018-03-28T02:40:17.239Z,97995
2018-03-28T02:42:44.339Z,98004
2018-03-28T02:45:11.420Z,97996
2018-03-28T02:47:38.398Z,97997
2018-03-28T02:50:05.479Z,97992
2018-03-28T02:52:32.459Z,97997
2018-03-28T02:54:59.465Z,97997
2018-03-28T02:57:26.529Z,97990
2018-03-28T02:59:53.566Z,97990
2018-03-28T03:02:20.614Z,97986
2018-03-28T03:04:47.657Z,97980
2018-03-28T03:07:14.618Z,97982
2018-03-28T03:09:41.600Z,97987
2018-03-28T03:12:08.618Z,97987
2018-03-28T03:14:35.578Z,97991
2018-03-28T03:17:02.539Z,97994
2018-03-28T03:19:29.540Z,97988
2018-03-28T03:21:56.458Z,97981
2018-03-28T03:24:23.958Z,97991
2018-03-28T03:26:51.038Z,97988
2018-03-28T03:29:18.058Z,98003
2018-03-28T03:31:45.059Z,98001
2018-03-28T03:34:12.098Z,97998
2018-03-28T03:36:39.158Z,98000
2018-03-28T03:39:06.178Z,97992
2018-03-28T03:41:33.222Z,97996
2018-03-28T03:44:01.146Z,97994
2018-03-28T03:46:28.158Z,98000
2018-03-28T03:48:55.238Z,97988
2018-03-28T03:51:27.318Z,97997
2018-03-28T03:53:54.318Z,97992
2018-03-28T03:56:21.399Z,97993
2018-03-28T03:58:54.179Z,97987
2018-03-28T04:01:21.218Z,97991
2018-03-28T04:03:48.198Z,97986
2018-03-28T04:06:15.918Z,97982
2018-03-28T04:08:42.938Z,97986
2018-03-28T04:11:09.901Z,97994
2018-03-28T04:13:36.878Z,97992
2018-03-28T04:16:03.918Z,97983
2018-03-28T04:18:30.879Z,97977
2018-03-28T04:20:58.598Z,97975
2018-03-28T04:23:25.599Z,97977
2018-03-28T04:25:52.558Z,97981
2018-03-28T04:28:19.518Z,97982
2018-03-28T04:30:46.539Z,97982
2018-03-28T04:33:14.220Z,97981
2018-03-28T04:35:41.118Z,97982
2018-03-28T04:38:08.199Z,97989
2018-03-28T04:40:35.238Z,97985
2018-03-28T04:43:02.258Z,97982
2018-03-28T04:45:29.338Z,97992
2018-03-28T04:47:56.318Z,97990
2018-03-28T04:50:23.338Z,97992
2018-03-28T04:52:50.419Z,97989
2018-03-28T04:55:17.398Z,97991
2018-03-28T04:57:45.198Z,97998
2018-03-28T05:00:12.278Z,97995
2018-03-28T05:02:39.278Z,97999
2018-03-28T05:05:06.258Z,97998
2018-03-28T05:07:33.298Z,97997
2018-03-28T05:10:00.298Z,98006
2018-03-28T05:12:32.278Z,98010
2018-03-28T05:14:59.298Z,98002
2018-03-28T05:17:26.297Z,98001
2018-03-28T05:19:53.278Z,97987
2018-03-28T05:22:20.338Z,97981
2018-03-28T05:24:48.118Z,97985
2018-03-28T05:27:15.838Z,97986
2018-03-28T05:29:42.918Z,97992
2018-03-28T05:32:09.877Z,97985
2018-03-28T05:34:37.638Z,97980
2018-03-28T05:37:04.664Z,97973
2018-03-28T05:39:31.597Z,97977
2018-03-28T05:41:58.537Z,97990
2018-03-28T05:44:25.572Z,97985
2018-03-28T05:46:52.565Z,97992
2018-03-28T05:49:20.320Z,97989
2018-03-28T05:51:47.418Z,97977
2018-03-28T05:54:14.418Z,97986
2018-03-28T05:56:41.418Z,97995
2018-03-28T05:59:08.445Z,97992
2018-03-28T06:01:35.458Z,97999
2018-03-28T06:04:02.444Z,97997
2018-03-28T06:06:29.478Z,97989
2018-03-28T06:08:56.498Z,97987
2018-03-28T06:11:24.300Z,97988
2018-03-28T06:13:51.364Z,97988
2018-03-28T06:16:18.399Z,97986
2018-03-28T06:18:45.418Z,97983
2018-03-28T06:21:12.438Z,97979
2018-03-28T06:23:39.437Z,97983
2018-03-28T06:26:06.423Z,97973
2018-03-28T06:28:33.477Z,97987
2018-03-28T06:31:00.482Z,97979
2018-03-28T06:33:27.478Z,97977
2018-03-28T06:35:54.502Z,97984
2018-03-28T06:38:21.518Z,97987
2018-03-28T06:40:48.498Z,97985
2018-03-28T06:43:15.538Z,97980
2018-03-28T06:45:42.518Z,97981
2018-03-28T06:48:09.481Z,97984
2018-03-28T06:50:36.438Z,97977
2018-03-28T06:53:03.458Z,97988
2018-03-28T06:55:30.478Z,97986
2018-03-28T06:57:58.258Z,97983
2018-03-28T07:00:25.258Z,97980
2018-03-28T07:02:52.238Z,97984
2018-03-28T07:05:20.019Z,97978
2018-03-28T07:07:46.997Z,97973
2018-03-28T07:10:14.038Z,97981
2018-03-28T07:12:41.138Z,97977
2018-03-28T07:15:08.898Z,97979
2018-03-28T07:17:36.661Z,97977
2018-03-28T07:20:04.478Z,97974
2018-03-28T07:22:31.478Z,97986
2018-03-28T07:24:58.499Z,97981
2018-03-28T07:27:25.579Z,97977
2018-03-28T07:29:53.320Z,97968
2018-03-28T07:32:20.298Z,97969
2018-03-28T07:34:47.318Z,97971
2018-03-28T07:37:14.318Z,97966
2018-03-28T07:39:41.298Z,97968
2018-03-28T07:42:08.338Z,97970
2018-03-28T07:44:35.318Z,97974
2018-03-28T07:47:03.178Z,97971
2018-03-28T07:49:30.178Z,97965
2018-03-28T07:51:58.138Z,97971
2018-03-28T07:54:25.099Z,97978
2018-03-28T07:56:52.238Z,97970
2018-03-28T07:59:19.238Z,97973
2018-03-28T08:01:46.238Z,97977
2018-03-28T08:04:13.318Z,97967
2018-03-28T08:06:40.318Z,97961
2018-03-28T08:09:07.358Z,97972
2018-03-28T08:11:34.398Z,97963
2018-03-28T08:14:01.398Z,97967
2018-03-28T08:16:29.218Z,97959
2018-03-28T08:18:56.758Z,97954
2018-03-28T08:21:23.758Z,97959
2018-03-28T08:23:50.778Z,97957
2018-03-28T08:26:18.638Z,97948
2018-03-28T08:28:45.640Z,97954
2018-03-28T08:31:12.638Z,97942
2018-03-28T08:33:39.659Z,97945
2018-03-28T08:36:06.707Z,97948
2018-03-28T08:38:33.718Z,97945
2018-03-28T08:41:00.762Z,97944
2018-03-28T08:43:28.500Z,97942
2018-03-28T08:45:55.498Z,97946
2018-03-28T08:48:22.559Z,97951
2018-03-28T08:50:49.519Z,97946
2018-03-28T08:53:16.459Z,97947
2018-03-28T08:55:44.239Z,97954
2018-03-28T08:58:11.628Z,97955
2018-03-28T09:00:38.719Z,97942
2018-03-28T09:03:05.778Z,97938
2018-03-28T09:05:32.819Z,97947
2018-03-28T09:08:00.579Z,97955
2018-03-28T09:10:28.338Z,97944
2018-03-28T09:12:55.338Z,97949
2018-03-28T09:15:22.458Z,97941
2018-03-28T09:17:49.579Z,97928
2018-03-28T09:20:16.619Z,97933
2018-03-28T09:22:43.618Z,97922
2018-03-28T09:25:10.719Z,97921
2018-03-28T09:27:37.778Z,97915
2018-03-28T09:30:04.766Z,97922
2018-03-28T09:32:32.545Z,97920
2018-03-28T09:34:59.527Z,97914
2018-03-28T09:37:26.524Z,97916
2018-03-28T09:39:54.318Z,97915
2018-03-28T09:42:21.278Z,97915
2018-03-28T09:44:48.278Z,97909
2018-03-28T09:47:16.039Z,97914
2018-03-28T09:49:43.739Z,97912
2018-03-28T09:52:10.679Z,97908
2018-03-28T09:54:37.758Z,97905
2018-03-28T09:57:04.858Z,97906
2018-03-28T09:59:31.918Z,97903
2018-03-28T10:01:59.018Z,97894
2018-03-28T10:04:26.998Z,97886
2018-03-28T10:06:54.742Z,97895
2018-03-28T10:09:21.818Z,97890
2018-03-28T10:11:48.878Z,97888
2018-03-28T10:14:15.898Z,97888
2018-03-28T10:16:43.059Z,97885
2018-03-28T10:19:10.839Z,97875
2018-03-28T10:21:37.946Z,97866
2018-03-28T10:24:05.049Z,97868
2018-03-28T10:26:32.024Z,97863
2018-03-28T10:29:04.084Z,97861
2018-03-28T10:31:31.184Z,97845
2018-03-28T10:33:58.984Z,97846
2018-03-28T10:36:26.044Z,97838
2018-03-28T10:38:53.105Z,97848
2018-03-28T10:41:20.165Z,97848
2018-03-28T10:43:47.124Z,97839
2018-03-28T10:46:14.164Z,97829
2018-03-28T10:48:41.224Z,97828
2018-03-28T10:51:08.984Z,97824
2018-03-28T10:53:36.784Z,97836
2018-03-28T10:56:03.845Z,97827
2018-03-28T10:58:30.865Z,97833
2018-03-28T11:00:57.904Z,97830
2018-03-28T11:03:24.950Z,97825
2018-03-28T11:05:52.310Z,97821
2018-03-28T11:08:19.465Z,97822
2018-03-28T11:10:46.484Z,97814
2018-03-28T11:13:14.264Z,97816
2018-03-28T11:15:41.304Z,97812
2018-03-28T11:18:08.304Z,97800
2018-03-28T11:20:35.264Z,97790
2018-03-28T11:23:02.344Z,97791
2018-03-28T11:25:29.385Z,97793
2018-03-28T11:27:57.124Z,97781
2018-03-28T11:30:24.244Z,97783
2018-03-28T11:32:51.284Z,97768
2018-03-28T11:35:18.303Z,97771
2018-03-28T11:37:45.385Z,97766
2018-03-28T11:40:12.464Z,97768
2018-03-28T11:42:39.543Z,97770
2018-03-28T11:45:06.624Z,97755
2018-03-28T11:47:33.686Z,97748
2018-03-28T11:50:00.667Z,97753
2018-03-28T11:52:27.727Z,97755
2018-03-28T11:54:54.744Z,97753
2018-03-28T11:57:21.763Z,97739
2018-03-28T11:59:48.789Z,97744
2018-03-28T12:02:18.723Z,97739
2018-03-28T12:04:45.724Z,97725
2018-03-28T12:07:12.784Z,97717
2018-03-28T12:09:39.764Z,97726
2018-03-28T12:12:06.823Z,97720
2018-03-28T12:14:33.944Z,97718
2018-03-28T12:17:00.963Z,97717
2018-03-28T12:19:27.944Z,97709
2018-03-28T12:21:54.984Z,97717
2018-03-28T12:24:21.964Z,97715
2018-03-28T12:26:49.122Z,97720
2018-03-28T12:29:16.184Z,97722
2018-03-28T12:31:43.924Z,97717
2018-03-28T12:34:11.144Z,97712
2018-03-28T12:36:38.206Z,97699
2018-03-28T12:39:06.169Z,97686
2018-03-28T12:41:33.204Z,97691
2018-03-28T12:44:00.264Z,97684
2018-03-28T12:46:27.264Z,97678
2018-03-28T12:48:54.244Z,97671
2018-03-28T12:51:21.624Z,97661
2018-03-28T12:53:48.604Z,97667
2018-03-28T12:56:16.284Z,97656
2018-03-28T12:58:43.305Z,97653
2018-03-28T13:01:10.324Z,97652
2018-03-28T13:03:37.344Z,97647
2018-03-28T13:06:04.404Z,97646
2018-03-28T13:08:31.464Z,97655
2018-03-28T13:10:58.424Z,97648
2018-03-28T13:13:25.564Z,97643
2018-03-28T13:15:52.607Z,97639
2018-03-28T13:18:19.664Z,97642
2018-03-28T13:20:46.744Z,97635
2018-03-28T13:23:13.764Z,97634
2018-03-28T13:25:40.830Z,97640
2018-03-28T13:28:08.663Z,97647
2018-03-28T13:30:35.940Z,97634
2018-03-28T13:33:02.980Z,97626
2018-03-28T13:35:30.040Z,97630
2018-03-28T13:37:57.781Z,97622
2018-03-28T13:40:24.800Z,97634
2018-03-28T13:42:51.860Z,97635
2018-03-28T13:45:18.860Z,97634
2018-03-28T13:47:45.862Z,97638
2018-03-28T13:50:12.880Z,97621
2018-03-28T13:52:39.880Z,97598
2018-03-28T13:55:06.879Z,97606
2018-03-28T13:57:34.040Z,97599
2018-03-28T14:00:00.989Z,97594
2018-03-28T14:02:28.120Z,97599
2018-03-28T14:04:55.122Z,97596
2018-03-28T14:07:22.940Z,97596
2018-03-28T14:09:50.083Z,97586
2018-03-28T14:12:17.068Z,97580
2018-03-28T14:14:44.127Z,97578
2018-03-28T14:17:11.968Z,97563
2018-03-28T14:19:39.108Z,97576
2018-03-28T14:22:06.109Z,97574
2018-03-28T14:24:33.490Z,97572
2018-03-28T14:27:00.488Z,97561
2018-03-28T14:29:28.227Z,97545
2018-03-28T14:31:55.270Z,97549
2018-03-28T14:34:23.041Z,97540
2018-03-28T14:36:49.866Z,97540
2018-03-28T14:39:16.906Z,97542
2018-03-28T14:41:43.721Z,97546
2018-03-28T14:44:11.029Z,97544
2018-03-28T14:46:38.015Z,97539
2018-03-28T14:49:04.860Z,97548
2018-03-28T14:51:31.780Z,97550
2018-03-28T14:53:59.963Z,97554
2018-03-28T14:56:27.082Z,97544
2018-03-28T14:58:54.128Z,97540
2018-03-28T15:01:21.160Z,97528
2018-03-28T15:03:49.569Z,97519
2018-03-28T15:06:16.669Z,97532
2018-03-28T15:08:43.569Z,97529
2018-03-28T15:11:10.652Z,97532
2018-03-28T15:13:37.508Z,97536
2018-03-28T15:16:04.647Z,97536
2018-03-28T15:18:31.637Z,97542
2018-03-28T15:20:59.442Z,97533
2018-03-28T15:23:26.462Z,97529
2018-03-28T15:25:54.242Z,97519
2018-03-28T15:28:21.245Z,97515
2018-03-28T15:30:48.242Z,97521
2018-03-28T15:33:15.149Z,97497
2018-03-28T15:35:42.142Z,97513
2018-03-28T15:38:09.122Z,97518
2018-03-28T15:40:36.164Z,97511
2018-03-28T15:43:03.079Z,97499
2018-03-28T15:45:30.212Z,97501
2018-03-28T15:47:57.166Z,97504
2018-03-28T15:50:24.161Z,97483
2018-03-28T15:52:52.058Z,97473
2018-03-28T15:55:19.098Z,97479
2018-03-28T15:57:46.676Z,97474
2018-03-28T16:00:13.644Z,97478
2018-03-28T16:02:41.948Z,97473
2018-03-28T16:05:09.123Z,97474
2018-03-28T16:07:36.779Z,97461
2018-03-28T16:10:04.498Z,97468
2018-03-28T16:12:31.544Z,97460
2018-03-28T16:14:59.319Z,97463
2018-03-28T16:17:26.406Z,97464
2018-03-28T16:19:53.439Z,97452
2018-03-28T16:22:21.367Z,97451
2018-03-28T16:24:48.562Z,97451
2018-03-28T16:27:16.443Z,97453
2018-03-28T16:29:43.314Z,97453
2018-03-28T16:32:10.214Z,97460
2018-03-28T16:34:40.039Z,97454
2018-03-28T16:37:07.699Z,97452
2018-03-28T16:39:35.518Z,97452
2018-03-28T16:42:02.454Z,97450
2018-03-28T16:44:29.507Z,97451
2018-03-28T16:46:56.542Z,97446
2018-03-28T16:49:23.622Z,97446
2018-03-28T16:51:50.570Z,97443
2018-03-28T16:54:17.464Z,97443
2018-03-28T16:56:44.501Z,97446
2018-03-28T16:59:11.519Z,97442
2018-03-28T17:01:38.569Z,97432
2018-03-28T17:04:06.236Z,97429
2018-03-28T17:06:33.241Z,97425
2018-03-28T17:09:00.162Z,97423
2018-03-28T17:11:27.226Z,97422
2018-03-28T17:13:54.241Z,97415
2018-03-28T17:16:21.320Z,97409
2018-03-28T17:18:48.328Z,97412
2018-03-28T17:21:15.237Z,97413
2018-03-28T17:23:43.260Z,97409
2018-03-28T17:26:11.120Z,97414
2018-03-28T17:28:38.141Z,97419
2018-03-28T17:31:05.984Z,97414
2018-03-28T17:33:33.728Z,97414
2018-03-28T17:36:00.829Z,97412
2018-03-28T17:38:27.951Z,97414
2018-03-28T17:40:55.790Z,97405
2018-03-28T17:43:22.829Z,97404
2018-03-28T17:45:49.889Z,97406
2018-03-28T17:48:17.029Z,97400
2018-03-28T17:50:44.095Z,97400
2018-03-28T17:53:11.069Z,97398
2018-03-28T17:55:38.152Z,97404
2018-03-28T17:58:05.269Z,97402
2018-03-28T18:00:32.509Z,97401
2018-03-28T18:02:59.789Z,97395
2018-03-28T18:05:27.196Z,97398
2018-03-28T18:07:54.269Z,97393
2018-03-28T18:10:22.109Z,97399
2018-03-28T18:12:49.310Z,97391
2018-03-28T18:15:16.349Z,97391
2018-03-28T18:17:43.391Z,97387
2018-03-28T18:20:10.429Z,97382
2018-03-28T18:22:37.490Z,97385
2018-03-28T18:25:04.589Z,97385
2018-03-28T18:27:31.667Z,97387
2018-03-28T18:29:58.770Z,97386
2018-03-28T18:32:25.775Z,97385
2018-03-28T18:34:52.911Z,97375
2018-03-28T18:37:19.994Z,97384
2018-03-28T18:39:47.109Z,97385
2018-03-28T18:42:14.210Z,97378
2018-03-28T18:44:42.129Z,97376
2018-03-28T18:47:09.269Z,97387
2018-03-28T18:49:36.508Z,97390
2018-03-28T18:52:03.570Z,97383
2018-03-28T18:54:30.669Z,97378
2018-03-28T18:57:02.829Z,97375
2018-03-28T18:59:29.909Z,97378
2018-03-28T19:01:57.069Z,97369
2018-03-28T19:04:24.189Z,97369
2018-03-28T19:06:51.389Z,97366
2018-03-28T19:09:18.430Z,97360
2018-03-28T19:11:45.809Z,97362
2018-03-28T19:14:12.869Z,97363
2018-03-28T19:16:39.889Z,97358
2018-03-28T19:19:06.929Z,97354
2018-03-28T19:21:34.815Z,97362
2018-03-28T19:24:01.894Z,97363
2018-03-28T19:26:29.055Z,97373
2018-03-28T19:28:56.130Z,97364
2018-03-28T19:31:23.935Z,97362
2018-03-28T19:33:51.044Z,97366
2018-03-28T19:36:18.830Z,97367
2018-03-28T19:38:45.951Z,97365
2018-03-28T19:41:13.789Z,97362
2018-03-28T19:43:40.930Z,97361
2018-03-28T19:46:08.056Z,97361
2018-03-28T19:48:35.171Z,97366
2018-03-28T19:51:02.950Z,97365
2018-03-28T19:53:29.989Z,97364
2018-03-28T19:55:57.009Z,97355
2018-03-28T19:58:24.055Z,97346
2018-03-28T20:00:51.135Z,97339
2018-03-28T20:03:18.213Z,97338
2018-03-28T20:05:45.229Z,97333
2018-03-28T20:08:12.256Z,97332
2018-03-28T20:10:39.329Z,97329
2018-03-28T20:13:06.429Z,97325
2018-03-28T20:15:33.589Z,97322
2018-03-28T20:18:00.669Z,97321
2018-03-28T20:20:27.696Z,97307
2018-03-28T20:23:00.629Z,97307
2018-03-28T20:25:32.750Z,97302
2018-03-28T20:28:05.010Z,97298
2018-03-28T20:30:32.189Z,97299
2018-03-28T20:32:59.229Z,97293
2018-03-28T20:35:26.289Z,97298
2018-03-28T20:37:53.350Z,97291
2018-03-28T20:40:20.390Z,97296
2018-03-28T20:42:47.549Z,97296
2018-03-28T20:45:14.588Z,97291
2018-03-28T20:47:42.369Z,97295
2018-03-28T20:50:10.189Z,97295
2018-03-28T20:52:37.269Z,97298
2018-03-28T20:55:05.009Z,97299
2018-03-28T20:57:32.289Z,97313
2018-03-28T20:59:59.409Z,97314
2018-03-28T21:02:26.529Z,97323
2018-03-28T21:04:53.670Z,97323
2018-03-28T21:07:20.758Z,97323
2018-03-28T21:09:47.869Z,97322
2018-03-28T21:12:15.089Z,97327
2018-03-28T21:14:42.912Z,97327
2018-03-28T21:17:09.989Z,97321
2018-03-28T21:19:37.069Z,97320
2018-03-28T21:22:04.110Z,97324
2018-03-28T21:24:31.150Z,97317
2018-03-28T21:26:58.990Z,97302
2018-03-28T21:29:26.030Z,97303
2018-03-28T21:31:53.073Z,97306
2018-03-28T21:34:20.131Z,97301
2018-03-28T21:36:47.170Z,97306
2018-03-28T21:39:14.209Z,97300
2018-03-28T21:41:42.829Z,97307
2018-03-28T21:44:10.609Z,97295
2018-03-28T21:46:37.789Z,97298
2018-03-28T21:49:05.685Z,97298
2018-03-28T21:51:32.790Z,97301
2018-03-28T21:54:00.911Z,97292
2018-03-28T21:56:28.749Z,97280
2018-03-28T21:58:55.830Z,97277
2018-03-28T22:01:23.709Z,97270
2018-03-28T22:03:50.789Z,97267
2018-03-28T22:06:17.870Z,97259
2018-03-28T22:08:45.010Z,97256
2018-03-28T22:11:12.110Z,97249
2018-03-28T22:13:39.229Z,97248
2018-03-28T22:16:06.709Z,97246
2018-03-28T22:18:33.749Z,97241
2018-03-28T22:21:00.822Z,97244
2018-03-28T22:23:27.829Z,97246
2018-03-28T22:25:54.870Z,97238
2018-03-28T22:28:21.890Z,97244
2018-03-28T22:30:48.929Z,97241
2018-03-28T22:33:16.071Z,97244
2018-03-28T22:35:43.149Z,97253
2018-03-28T22:38:10.209Z,97249
2018-03-28T22:40:37.375Z,97249
2018-03-28T22:43:05.215Z,97254
2018-03-28T22:45:32.270Z,97261
2018-03-28T22:47:59.431Z,97260
2018-03-28T22:50:27.272Z,97257
2018-03-28T22:52:54.430Z,97245
2018-03-28T22:55:21.469Z,97237
2018-03-28T22:57:48.509Z,97240
2018-03-28T23:00:15.870Z,97240
2018-03-28T23:02:42.920Z,97228
2018-03-28T23:05:09.952Z,97248
2018-03-28T23:07:37.010Z,97243
2018-03-28T23:10:04.049Z,97242
2018-03-28T23:12:31.150Z,97232
2018-03-28T23:14:58.190Z,97234
2018-03-28T23:17:25.156Z,97222
2018-03-28T23:19:52.229Z,97224
2018-03-28T23:22:39.330Z,97229
2018-03-28T23:25:06.495Z,97236
2018-03-28T23:27:33.615Z,97234
2018-03-28T23:30:00.710Z,97233
2018-03-28T23:32:27.812Z,97227
2018-03-28T23:34:54.964Z,97218
2018-03-28T23:37:22.030Z,97217
2018-03-28T23:39:49.089Z,97212
2018-03-28T23:42:16.223Z,97213
2018-03-28T23:44:43.249Z,97212
2018-03-28T23:47:10.349Z,97208
2018-03-28T23:49:37.389Z,97208
2018-03-28T23:52:04.429Z,97209
2018-03-28T23:54:31.409Z,97213
2018-03-28T23:56:58.509Z,97239
2018-03-28T23:59:25.594Z,97243
